Terminal Aerodrome Forecast
Issued by NWS

Home | Current Version | Previous Version | Graphics & Text | Print | Product List | Glossary On
Versions: 1 2 3 4 5 6 7 8 9 10 11 12 13 14 15 16 17 18 19 20 21 22 23 24 25 26 27 28 29 30 31 32 33 34 35 36 37 38 39 40 41 42 43 44 45 46 47 48 49 50
000
FTUS43 KLOT 271100
TAFGYY
TAF
KGYY 271125Z 2712/2812 25005KT 3SM BR BKN015
      TEMPO 2712/2713 1SM BR BKN005
     FM271400 27010KT P6SM SCT010 SCT100
     FM271700 28011G18KT 6SM SHRA VCTS BKN035CB
      TEMPO 2717/2719 4SM TSRA BKN025CB
     FM271900 30015G26KT P6SM VCSH BKN040
     FM280200 33012G18KT P6SM BKN030
     FM280800 34012KT P6SM SCT035=

USA.gov is the U.S. government's official web portal to all federal, state and local government web resources and services.